createdAt,value
2023-01-17T00:05:04.936Z,215803.00
2023-01-17T00:11:07.168Z,215797.00
2023-01-17T00:17:09.185Z,215775.00
2023-01-17T00:23:33.700Z,215755.00
2023-01-17T00:29:35.666Z,215734.00
2023-01-17T00:35:37.952Z,215755.00
2023-01-17T00:41:39.923Z,215803.00
2023-01-17T00:48:04.077Z,215856.00
2023-01-17T00:54:25.385Z,215875.00
2023-01-17T01:00:46.319Z,215875.00
2023-01-17T01:07:06.887Z,215895.00
2023-01-17T01:13:27.873Z,215903.00
2023-01-17T01:19:49.339Z,215816.00
2023-01-17T01:26:10.889Z,215797.00
2023-01-17T01:32:31.726Z,215736.00
2023-01-17T01:38:33.800Z,215660.00
2023-01-17T01:44:45.134Z,215605.00
2023-01-17T01:50:48.747Z,215538.00
2023-01-17T01:56:52.823Z,215518.00
2023-01-17T02:02:58.461Z,215571.00
2023-01-17T02:09:05.884Z,215518.00
2023-01-17T02:15:08.651Z,215389.00
2023-01-17T02:21:13.608Z,215314.00
2023-01-17T02:27:27.825Z,215300.00
2023-01-17T02:33:48.643Z,215255.00
2023-01-17T02:40:03.056Z,215221.00
2023-01-17T02:46:05.413Z,215194.00
2023-01-17T02:52:36.179Z,215140.00
2023-01-17T02:59:02.335Z,215112.00
2023-01-17T03:05:20.232Z,215120.00
2023-01-17T03:11:22.724Z,215134.00
2023-01-17T03:17:29.276Z,215126.00
2023-01-17T03:23:31.685Z,215174.00
2023-01-17T03:29:34.145Z,215227.00
2023-01-17T03:35:36.377Z,215235.00
2023-01-17T03:41:38.926Z,215263.00
2023-01-17T03:47:41.771Z,215275.00
2023-01-17T03:53:46.980Z,215300.00
2023-01-17T03:59:49.666Z,215322.00
2023-01-17T04:05:52.170Z,215300.00
2023-01-17T04:11:54.428Z,215316.00
2023-01-17T04:17:56.839Z,215375.00
2023-01-17T04:23:59.220Z,215417.00
2023-01-17T04:30:01.425Z,215465.00
2023-01-17T04:36:03.872Z,215465.00
2023-01-17T04:42:06.439Z,215546.00
2023-01-17T04:48:08.920Z,215640.00
2023-01-17T04:54:10.979Z,215702.00
2023-01-17T05:00:13.886Z,215755.00
2023-01-17T05:06:16.259Z,215828.00
2023-01-17T05:12:25.731Z,215875.00
2023-01-17T05:18:27.818Z,215917.00
2023-01-17T05:24:31.259Z,215931.00
2023-01-17T05:30:33.706Z,215965.00
2023-01-17T05:36:36.065Z,215979.00
2023-01-17T05:42:38.777Z,215979.00
2023-01-17T05:48:40.747Z,215917.00
2023-01-17T05:54:43.152Z,215917.00
2023-01-17T06:00:45.699Z,215951.00
2023-01-17T06:06:47.777Z,215895.00
2023-01-17T06:12:49.885Z,215870.00
2023-01-17T06:18:52.089Z,215856.00
2023-01-17T06:24:54.679Z,215903.00
2023-01-17T06:30:57.036Z,215917.00
2023-01-17T06:36:59.473Z,215993.00
2023-01-17T06:43:03.099Z,211989.00
2023-01-17T06:49:05.680Z,212031.00
2023-01-17T06:55:09.035Z,212050.00
2023-01-17T07:01:13.180Z,212025.00
2023-01-17T07:07:16.064Z,211977.00
2023-01-17T07:13:18.652Z,211997.00
2023-01-17T07:19:20.850Z,212100.00
2023-01-17T07:25:23.246Z,212148.00
2023-01-17T07:31:25.487Z,212086.00
2023-01-17T07:37:27.686Z,212201.00
2023-01-17T07:43:30.288Z,212337.00
2023-01-17T07:49:32.463Z,212385.00
2023-01-17T07:55:34.820Z,212427.00
2023-01-17T08:01:37.432Z,212535.00
2023-01-17T08:07:40.025Z,212610.00
2023-01-17T08:13:42.222Z,212714.00
2023-01-17T08:19:45.203Z,212666.00
2023-01-17T08:25:47.375Z,212842.00
2023-01-17T08:31:50.153Z,213097.00
2023-01-17T08:37:54.620Z,213419.00
2023-01-17T08:43:57.087Z,213681.00
2023-01-17T08:50:02.011Z,214052.00
2023-01-17T08:56:05.751Z,214363.00
2023-01-17T09:02:15.374Z,215469.00
2023-01-17T09:08:17.508Z,215273.00
2023-01-17T09:14:19.785Z,215154.00
2023-01-17T09:20:22.152Z,215217.00
2023-01-17T09:26:29.957Z,215369.00
2023-01-17T09:32:32.360Z,215391.00
2023-01-17T09:38:34.610Z,215538.00
2023-01-17T09:44:45.143Z,215783.00
2023-01-17T09:50:53.653Z,215833.00
2023-01-17T09:57:04.789Z,215728.00
2023-01-17T10:03:31.704Z,215576.00
2023-01-17T10:09:44.614Z,215532.00
2023-01-17T10:15:54.680Z,215546.00
2023-01-17T10:22:31.412Z,215742.00
2023-01-17T10:28:40.706Z,216218.00
2023-01-17T10:34:50.241Z,216661.00
2023-01-17T10:41:16.639Z,216766.00
2023-01-17T10:47:24.616Z,216890.00
2023-01-17T10:53:48.233Z,217057.00
2023-01-17T10:59:50.710Z,217191.00
2023-01-17T11:06:15.170Z,217205.00
2023-01-17T11:12:25.169Z,217392.00
2023-01-17T11:18:30.134Z,217661.00
2023-01-17T11:24:40.671Z,217738.00
2023-01-17T11:30:52.600Z,217951.00
2023-01-17T11:37:18.237Z,218351.00
2023-01-17T11:43:27.991Z,218668.00
2023-01-17T11:49:30.042Z,218838.00
2023-01-17T11:55:32.233Z,219147.00
2023-01-17T12:02:15.902Z,219466.00
2023-01-17T12:08:39.615Z,222848.00
2023-01-17T12:15:09.609Z,220536.00
2023-01-17T12:21:28.324Z,219550.00
2023-01-17T12:27:53.964Z,219046.00
2023-01-17T12:34:02.640Z,218723.00
2023-01-17T12:40:07.927Z,218737.00
2023-01-17T12:46:21.551Z,218729.00
2023-01-17T12:52:45.563Z,218874.00
2023-01-17T12:58:52.471Z,218832.00
2023-01-17T13:04:59.670Z,218623.00
2023-01-17T13:11:28.422Z,218395.00
2023-01-17T13:18:01.732Z,218272.00
2023-01-17T13:24:23.080Z,218174.00
2023-01-17T13:31:03.327Z,218124.00
2023-01-17T13:37:33.742Z,218058.00
2023-01-17T13:43:39.559Z,217959.00
2023-01-17T13:49:42.272Z,217787.00
2023-01-17T13:55:46.196Z,217694.00
2023-01-17T14:01:52.357Z,217590.00
2023-01-17T14:08:02.480Z,217554.00
2023-01-17T14:14:44.567Z,217496.00
2023-01-17T14:20:50.301Z,217384.00
2023-01-17T14:26:59.705Z,217235.00
2023-01-17T14:33:12.826Z,217129.00
2023-01-17T14:39:21.396Z,217008.00
2023-01-17T14:45:28.384Z,216846.00
2023-01-17T14:51:35.204Z,216661.00
2023-01-17T14:57:37.405Z,216464.00
2023-01-17T15:03:51.409Z,216282.00
2023-01-17T15:09:53.531Z,216086.00
2023-01-17T15:16:07.690Z,215987.00
2023-01-17T15:22:10.631Z,215880.00
2023-01-17T15:28:13.752Z,215734.00
2023-01-17T15:34:34.724Z,215607.00
2023-01-17T15:40:43.911Z,215496.00
2023-01-17T15:46:46.347Z,215419.00
2023-01-17T15:52:49.826Z,215295.00
2023-01-17T15:58:54.948Z,215204.00
2023-01-17T16:04:57.523Z,215120.00
2023-01-17T16:11:06.464Z,215052.00
2023-01-17T16:17:16.272Z,214994.00
2023-01-17T16:23:18.920Z,214925.00
2023-01-17T16:29:20.969Z,214889.00
2023-01-17T16:35:24.183Z,214808.00
2023-01-17T16:41:26.463Z,214737.00
2023-01-17T16:47:28.597Z,214731.00
2023-01-17T16:53:30.875Z,214737.00
2023-01-17T16:59:49.639Z,214725.00
2023-01-17T17:05:57.613Z,214648.00
2023-01-17T17:12:00.061Z,214570.00
2023-01-17T17:18:02.299Z,214584.00
2023-01-17T17:24:05.052Z,214604.00
2023-01-17T17:30:07.422Z,214570.00
2023-01-17T17:36:12.620Z,214551.00
2023-01-17T17:42:17.018Z,214523.00
2023-01-17T17:48:20.798Z,214474.00
2023-01-17T17:54:24.947Z,214460.00
2023-01-17T18:00:27.723Z,214446.00
2023-01-17T18:06:29.991Z,214432.00
2023-01-17T18:12:32.359Z,214424.00
2023-01-17T18:18:36.681Z,214404.00
2023-01-17T18:24:38.901Z,214398.00
2023-01-17T18:30:41.246Z,214446.00
2023-01-17T18:36:44.383Z,214398.00
2023-01-17T18:42:48.775Z,214355.00
2023-01-17T18:48:50.852Z,214382.00
2023-01-17T18:54:52.901Z,214321.00
2023-01-17T19:00:55.588Z,214329.00
2023-01-17T19:06:57.855Z,214296.00
2023-01-17T19:13:00.689Z,214244.00
2023-01-17T19:19:07.134Z,214238.00
2023-01-17T19:25:09.309Z,214244.00
2023-01-17T19:31:16.503Z,214244.00
2023-01-17T19:37:18.706Z,214225.00
2023-01-17T19:43:21.273Z,214225.00
2023-01-17T19:49:25.034Z,214274.00
2023-01-17T19:55:27.157Z,214355.00
2023-01-17T20:01:31.700Z,214446.00
2023-01-17T20:07:34.268Z,214488.00
2023-01-17T20:13:36.629Z,214496.00
2023-01-17T20:19:38.808Z,214545.00
2023-01-17T20:25:41.154Z,214551.00
2023-01-17T20:31:44.595Z,214537.00
2023-01-17T20:37:47.265Z,214551.00
2023-01-17T20:43:54.731Z,214523.00
2023-01-17T20:49:57.806Z,214502.00
2023-01-17T20:56:00.023Z,214466.00
2023-01-17T21:02:02.467Z,214515.00
2023-01-17T21:08:05.440Z,214502.00
2023-01-17T21:14:07.762Z,214432.00
2023-01-17T21:20:14.210Z,214384.00
2023-01-17T21:26:18.037Z,214335.00
2023-01-17T21:32:20.372Z,214355.00
2023-01-17T21:38:22.849Z,214355.00
2023-01-17T21:44:26.375Z,214321.00
2023-01-17T21:50:33.404Z,214376.00
2023-01-17T21:56:55.018Z,214404.00
2023-01-17T22:02:58.965Z,214446.00
2023-01-17T22:09:01.540Z,214454.00
2023-01-17T22:15:04.351Z,214515.00
2023-01-17T22:21:07.809Z,214515.00
2023-01-17T22:27:13.924Z,214482.00
2023-01-17T22:33:16.331Z,214496.00
2023-01-17T22:39:18.311Z,214570.00
2023-01-17T22:45:20.491Z,214612.00
2023-01-17T22:51:26.772Z,214648.00
2023-01-17T22:57:29.034Z,214653.00
2023-01-17T23:03:31.817Z,214681.00
2023-01-17T23:09:34.283Z,214695.00
2023-01-17T23:15:58.173Z,214681.00
2023-01-17T23:22:16.918Z,214634.00
2023-01-17T23:28:21.326Z,214578.00
2023-01-17T23:34:23.439Z,214559.00
2023-01-17T23:40:25.647Z,214515.00
2023-01-17T23:46:29.079Z,214446.00
2023-01-17T23:52:31.258Z,214296.00
2023-01-17T23:58:35.066Z,214197.00
